sensor_id;sensor_type;location;lat;lon;timestamp;pressure;altitude;pressure_sealevel;temperature;humidity
5609;BME280;2826;51.354;9.588;2024-03-08T00:01:31;98512.19;;;4.36;54.95
5609;BME280;2826;51.354;9.588;2024-03-08T00:03:59;98510.47;;;4.34;55.39
5609;BME280;2826;51.354;9.588;2024-03-08T00:06:26;98506.22;;;4.34;55.33
5609;BME280;2826;51.354;9.588;2024-03-08T00:08:52;98503.66;;;4.31;55.24
5609;BME280;2826;51.354;9.588;2024-03-08T00:11:19;98507.09;;;4.28;55.55
5609;BME280;2826;51.354;9.588;2024-03-08T00:13:46;98510.53;;;4.29;55.92
5609;BME280;2826;51.354;9.588;2024-03-08T00:16:12;98501.06;;;4.34;55.50
5609;BME280;2826;51.354;9.588;2024-03-08T00:18:39;98505.34;;;4.34;55.66
5609;BME280;2826;51.354;9.588;2024-03-08T00:21:07;98498.50;;;4.34;55.52
5609;BME280;2826;51.354;9.588;2024-03-08T00:23:34;98501.94;;;4.35;55.75
5609;BME280;2826;51.354;9.588;2024-03-08T00:26:00;98495.88;;;4.40;55.51
5609;BME280;2826;51.354;9.588;2024-03-08T00:28:29;98495.03;;;4.40;55.29
5609;BME280;2826;51.354;9.588;2024-03-08T00:30:56;98501.84;;;4.44;55.21
5609;BME280;2826;51.354;9.588;2024-03-08T00:33:22;98496.72;;;4.41;55.35
5609;BME280;2826;51.354;9.588;2024-03-08T00:35:49;98491.66;;;4.36;55.71
5609;BME280;2826;51.354;9.588;2024-03-08T00:38:17;98489.00;;;4.42;55.41
5609;BME280;2826;51.354;9.588;2024-03-08T00:40:44;98489.00;;;4.46;55.32
5609;BME280;2826;51.354;9.588;2024-03-08T00:43:11;98494.13;;;4.46;55.12
5609;BME280;2826;51.354;9.588;2024-03-08T00:45:38;98485.59;;;4.40;55.19
5609;BME280;2826;51.354;9.588;2024-03-08T00:48:08;98484.78;;;4.38;54.80
5609;BME280;2826;51.354;9.588;2024-03-08T00:50:34;98484.78;;;4.35;54.96
5609;BME280;2826;51.354;9.588;2024-03-08T00:53:01;98478.84;;;4.33;55.13
5609;BME280;2826;51.354;9.588;2024-03-08T00:55:29;98481.41;;;4.35;55.00
5609;BME280;2826;51.354;9.588;2024-03-08T00:57:56;98478.84;;;4.33;55.29
5609;BME280;2826;51.354;9.588;2024-03-08T01:00:22;98473.72;;;4.30;55.17
5609;BME280;2826;51.354;9.588;2024-03-08T01:02:51;98468.56;;;4.33;54.95
5609;BME280;2826;51.354;9.588;2024-03-08T01:05:17;98462.56;;;4.36;54.82
5609;BME280;2826;51.354;9.588;2024-03-08T01:07:44;98454.94;;;4.26;54.77
5609;BME280;2826;51.354;9.588;2024-03-08T01:10:11;98450.63;;;4.27;55.14
5609;BME280;2826;51.354;9.588;2024-03-08T01:12:39;98451.47;;;4.32;54.77
5609;BME280;2826;51.354;9.588;2024-03-08T01:15:09;98443.78;;;4.29;54.85
5609;BME280;2826;51.354;9.588;2024-03-08T01:17:36;98453.16;;;4.36;54.50
5609;BME280;2826;51.354;9.588;2024-03-08T01:20:03;98445.47;;;4.30;54.43
5609;BME280;2826;51.354;9.588;2024-03-08T01:22:30;98444.63;;;4.29;54.86
5609;BME280;2826;51.354;9.588;2024-03-08T01:24:57;98434.34;;;4.29;54.52
5609;BME280;2826;51.354;9.588;2024-03-08T01:27:23;98434.41;;;4.25;54.66
5609;BME280;2826;51.354;9.588;2024-03-08T01:29:52;98433.63;;;4.16;54.70
5609;BME280;2826;51.354;9.588;2024-03-08T01:32:18;98428.47;;;4.20;54.78
5609;BME280;2826;51.354;9.588;2024-03-08T01:34:48;98419.91;;;4.22;54.65
5609;BME280;2826;51.354;9.588;2024-03-08T01:37:14;98418.22;;;4.20;54.71
5609;BME280;2826;51.354;9.588;2024-03-08T01:39:41;98417.34;;;4.19;54.64
5609;BME280;2826;51.354;9.588;2024-03-08T01:42:07;98417.31;;;4.24;54.62
5609;BME280;2826;51.354;9.588;2024-03-08T01:44:34;98409.72;;;4.14;54.72
5609;BME280;2826;51.354;9.588;2024-03-08T01:47:02;98413.97;;;4.15;54.67
5609;BME280;2826;51.354;9.588;2024-03-08T01:49:29;98406.31;;;4.11;54.76
5609;BME280;2826;51.354;9.588;2024-03-08T01:51:56;98407.97;;;4.13;54.83
5609;BME280;2826;51.354;9.588;2024-03-08T01:54:22;98404.56;;;4.14;54.57
5609;BME280;2826;51.354;9.588;2024-03-08T01:56:50;98398.59;;;4.12;54.56
5609;BME280;2826;51.354;9.588;2024-03-08T01:59:18;98387.44;;;4.15;54.60
5609;BME280;2826;51.354;9.588;2024-03-08T02:01:45;98394.31;;;4.13;54.59
5609;BME280;2826;51.354;9.588;2024-03-08T02:04:14;98384.06;;;4.13;54.46
5609;BME280;2826;51.354;9.588;2024-03-08T02:06:41;98381.47;;;4.14;54.34
5609;BME280;2826;51.354;9.588;2024-03-08T02:09:08;98380.63;;;4.12;54.34
5609;BME280;2826;51.354;9.588;2024-03-08T02:11:35;98389.22;;;4.10;54.62
5609;BME280;2826;51.354;9.588;2024-03-08T02:14:02;98382.41;;;4.04;54.49
5609;BME280;2826;51.354;9.588;2024-03-08T02:16:31;98375.59;;;4.03;54.65
5609;BME280;2826;51.354;9.588;2024-03-08T02:18:58;98381.59;;;4.03;54.55
5609;BME280;2826;51.354;9.588;2024-03-08T02:21:26;98373.03;;;4.01;54.90
5609;BME280;2826;51.354;9.588;2024-03-08T02:23:53;98378.25;;;3.94;54.80
5609;BME280;2826;51.354;9.588;2024-03-08T02:26:19;98370.56;;;3.90;55.15
5609;BME280;2826;51.354;9.588;2024-03-08T02:28:46;98367.16;;;3.91;55.08
5609;BME280;2826;51.354;9.588;2024-03-08T02:31:13;98360.38;;;3.84;55.49
5609;BME280;2826;51.354;9.588;2024-03-08T02:33:39;98363.81;;;3.83;55.51
5609;BME280;2826;51.354;9.588;2024-03-08T02:36:06;98358.69;;;3.80;55.75
5609;BME280;2826;51.354;9.588;2024-03-08T02:38:34;98350.91;;;3.88;55.57
5609;BME280;2826;51.354;9.588;2024-03-08T02:41:01;98355.25;;;3.83;55.51
5609;BME280;2826;51.354;9.588;2024-03-08T02:43:29;98348.34;;;3.89;55.59
5609;BME280;2826;51.354;9.588;2024-03-08T02:45:55;98344.09;;;3.88;55.56
5609;BME280;2826;51.354;9.588;2024-03-08T02:48:22;98339.78;;;3.89;55.57
5609;BME280;2826;51.354;9.588;2024-03-08T02:50:48;98336.38;;;3.88;55.54
5609;BME280;2826;51.354;9.588;2024-03-08T02:53:16;98339.00;;;3.84;55.82
5609;BME280;2826;51.354;9.588;2024-03-08T02:55:45;98330.47;;;3.82;55.50
5609;BME280;2826;51.354;9.588;2024-03-08T02:58:12;98331.31;;;3.82;55.73
5609;BME280;2826;51.354;9.588;2024-03-08T03:00:40;98331.28;;;3.85;55.68
5609;BME280;2826;51.354;9.588;2024-03-08T03:03:07;98333.88;;;3.82;55.49
5609;BME280;2826;51.354;9.588;2024-03-08T03:05:33;98326.16;;;3.85;55.51
5609;BME280;2826;51.354;9.588;2024-03-08T03:08:00;98327.84;;;3.85;55.30
5609;BME280;2826;51.354;9.588;2024-03-08T03:10:29;98304.91;;;3.74;55.43
5609;BME280;2826;51.354;9.588;2024-03-08T03:12:57;98317.66;;;3.80;55.76
5609;BME280;2826;51.354;9.588;2024-03-08T03:15:24;98310.84;;;3.76;55.88
5609;BME280;2826;51.354;9.588;2024-03-08T03:17:51;98298.94;;;3.70;55.95
5609;BME280;2826;51.354;9.588;2024-03-08T03:20:18;98303.19;;;3.71;55.80
5609;BME280;2826;51.354;9.588;2024-03-08T03:22:51;98307.50;;;3.71;56.02
5609;BME280;2826;51.354;9.588;2024-03-08T03:25:18;98311.72;;;3.73;55.89
5609;BME280;2826;51.354;9.588;2024-03-08T03:27:51;98308.28;;;3.76;55.72
5609;BME280;2826;51.354;9.588;2024-03-08T03:30:19;98308.28;;;3.74;55.73
5609;BME280;2826;51.354;9.588;2024-03-08T03:32:49;98293.78;;;3.72;55.75
5609;BME280;2826;51.354;9.588;2024-03-08T03:35:16;98300.69;;;3.66;56.07
5609;BME280;2826;51.354;9.588;2024-03-08T03:37:43;98301.53;;;3.67;56.11
5609;BME280;2826;51.354;9.588;2024-03-08T03:40:16;98298.13;;;3.66;56.01
5609;BME280;2826;51.354;9.588;2024-03-08T03:42:44;98301.50;;;3.72;55.79
5609;BME280;2826;51.354;9.588;2024-03-08T03:45:11;98298.13;;;3.66;56.05
5609;BME280;2826;51.354;9.588;2024-03-08T03:47:42;98298.94;;;3.69;55.78
5609;BME280;2826;51.354;9.588;2024-03-08T03:50:09;98303.31;;;3.60;55.85
5609;BME280;2826;51.354;9.588;2024-03-08T03:52:35;98298.19;;;3.60;56.00
5609;BME280;2826;51.354;9.588;2024-03-08T03:55:02;98293.91;;;3.61;56.30
5609;BME280;2826;51.354;9.588;2024-03-08T03:57:29;98294.78;;;3.57;55.95
5609;BME280;2826;51.354;9.588;2024-03-08T03:59:56;98292.22;;;3.58;56.01
5609;BME280;2826;51.354;9.588;2024-03-08T04:02:23;98294.78;;;3.57;56.38
5609;BME280;2826;51.354;9.588;2024-03-08T04:04:53;98297.34;;;3.55;56.61
5609;BME280;2826;51.354;9.588;2024-03-08T04:07:19;98290.53;;;3.54;56.61
5609;BME280;2826;51.354;9.588;2024-03-08T04:09:46;98293.09;;;3.52;56.69
5609;BME280;2826;51.354;9.588;2024-03-08T04:12:13;98287.19;;;3.47;56.44
5609;BME280;2826;51.354;9.588;2024-03-08T04:14:41;98285.47;;;3.46;56.47
5609;BME280;2826;51.354;9.588;2024-03-08T04:17:08;98286.38;;;3.44;56.93
5609;BME280;2826;51.354;9.588;2024-03-08T04:19:36;98285.50;;;3.43;56.85
5609;BME280;2826;51.354;9.588;2024-03-08T04:22:05;98288.13;;;3.40;57.05
5609;BME280;2826;51.354;9.588;2024-03-08T04:24:32;98281.31;;;3.36;57.23
5609;BME280;2826;51.354;9.588;2024-03-08T04:26:59;98275.38;;;3.29;57.53
5609;BME280;2826;51.354;9.588;2024-03-08T04:29:26;98281.31;;;3.33;57.46
5609;BME280;2826;51.354;9.588;2024-03-08T04:31:52;98278.78;;;3.28;57.73
5609;BME280;2826;51.354;9.588;2024-03-08T04:34:20;98275.34;;;3.34;57.29
5609;BME280;2826;51.354;9.588;2024-03-08T04:36:46;98269.41;;;3.25;57.95
5609;BME280;2826;51.354;9.588;2024-03-08T04:39:14;98271.09;;;3.30;57.98
5609;BME280;2826;51.354;9.588;2024-03-08T04:41:41;98259.13;;;3.32;57.95
5609;BME280;2826;51.354;9.588;2024-03-08T04:44:10;98268.53;;;3.31;57.84
5609;BME280;2826;51.354;9.588;2024-03-08T04:46:38;98259.13;;;3.30;57.87
5609;BME280;2826;51.354;9.588;2024-03-08T04:49:04;98265.16;;;3.24;58.35
5609;BME280;2826;51.354;9.588;2024-03-08T04:51:32;98258.19;;;3.37;58.22
5609;BME280;2826;51.354;9.588;2024-03-08T04:53:59;98248.81;;;3.35;58.34
5609;BME280;2826;51.354;9.588;2024-03-08T04:56:26;98247.88;;;3.47;57.72
5609;BME280;2826;51.354;9.588;2024-03-08T04:58:53;98248.72;;;3.47;57.78
5609;BME280;2826;51.354;9.588;2024-03-08T05:01:19;98247.88;;;3.47;57.82
5609;BME280;2826;51.354;9.588;2024-03-08T05:03:47;98242.72;;;3.50;57.66
5609;BME280;2826;51.354;9.588;2024-03-08T05:06:15;98244.47;;;3.45;57.96
5609;BME280;2826;51.354;9.588;2024-03-08T05:08:42;98246.25;;;3.39;58.00
5609;BME280;2826;51.354;9.588;2024-03-08T05:11:08;98248.78;;;3.41;58.35
5609;BME280;2826;51.354;9.588;2024-03-08T05:13:36;98232.56;;;3.37;58.07
5609;BME280;2826;51.354;9.588;2024-03-08T05:16:04;98241.09;;;3.41;58.14
5609;BME280;2826;51.354;9.588;2024-03-08T05:18:32;98236.03;;;3.33;58.40
5609;BME280;2826;51.354;9.588;2024-03-08T05:21:01;98241.09;;;3.43;58.17
5609;BME280;2826;51.354;9.588;2024-03-08T05:23:29;98237.75;;;3.34;58.28
5609;BME280;2826;51.354;9.588;2024-03-08T05:25:55;98239.47;;;3.32;58.39
5609;BME280;2826;51.354;9.588;2024-03-08T05:28:22;98238.63;;;3.32;58.49
5609;BME280;2826;51.354;9.588;2024-03-08T05:30:50;98236.03;;;3.33;58.54
5609;BME280;2826;51.354;9.588;2024-03-08T05:33:16;98234.41;;;3.23;58.78
5609;BME280;2826;51.354;9.588;2024-03-08T05:35:45;98244.63;;;3.29;58.66
5609;BME280;2826;51.354;9.588;2024-03-08T05:38:12;98242.91;;;3.30;58.55
5609;BME280;2826;51.354;9.588;2024-03-08T05:40:39;98241.22;;;3.24;58.61
5609;BME280;2826;51.354;9.588;2024-03-08T05:43:05;98240.41;;;3.25;58.59
5609;BME280;2826;51.354;9.588;2024-03-08T05:45:32;98231.03;;;3.21;58.94
5609;BME280;2826;51.354;9.588;2024-03-08T05:48:01;98250.66;;;3.20;59.05
5609;BME280;2826;51.354;9.588;2024-03-08T05:50:27;98231.06;;;3.16;58.88
5609;BME280;2826;51.354;9.588;2024-03-08T05:52:54;98231.94;;;3.15;58.63
5609;BME280;2826;51.354;9.588;2024-03-08T05:55:21;98244.69;;;3.20;58.81
5609;BME280;2826;51.354;9.588;2024-03-08T05:57:49;98231.06;;;3.16;58.89
5609;BME280;2826;51.354;9.588;2024-03-08T06:00:17;98237.00;;;3.20;59.05
5609;BME280;2826;51.354;9.588;2024-03-08T06:02:44;98236.25;;;3.11;59.54
5609;BME280;2826;51.354;9.588;2024-03-08T06:05:12;98242.16;;;3.17;59.50
5609;BME280;2826;51.354;9.588;2024-03-08T06:07:38;98238.72;;;3.21;59.59
5609;BME280;2826;51.354;9.588;2024-03-08T06:10:07;98237.03;;;3.17;59.76
5609;BME280;2826;51.354;9.588;2024-03-08T06:12:36;98234.41;;;3.23;59.59
5609;BME280;2826;51.354;9.588;2024-03-08T06:15:06;98242.91;;;3.26;59.39
5609;BME280;2826;51.354;9.588;2024-03-08T06:17:32;98237.78;;;3.28;59.29
5609;BME280;2826;51.354;9.588;2024-03-08T06:20:00;98237.84;;;3.20;59.73
5609;BME280;2826;51.354;9.588;2024-03-08T06:22:27;98240.31;;;3.34;59.55
5609;BME280;2826;51.354;9.588;2024-03-08T06:24:56;98236.88;;;3.37;59.26
5609;BME280;2826;51.354;9.588;2024-03-08T06:27:22;98237.69;;;3.39;59.30
5609;BME280;2826;51.354;9.588;2024-03-08T06:29:49;98233.44;;;3.35;59.46
5609;BME280;2826;51.354;9.588;2024-03-08T06:32:15;98231.69;;;3.42;59.43
5609;BME280;2826;51.354;9.588;2024-03-08T06:34:42;98233.31;;;3.52;59.04
5609;BME280;2826;51.354;9.588;2024-03-08T06:37:08;98234.97;;;3.56;58.61
5609;BME280;2826;51.354;9.588;2024-03-08T06:39:36;98234.13;;;3.54;59.00
5609;BME280;2826;51.354;9.588;2024-03-08T06:42:03;98226.41;;;3.57;58.99
5609;BME280;2826;51.354;9.588;2024-03-08T06:44:30;98235.78;;;3.58;58.79
5609;BME280;2826;51.354;9.588;2024-03-08T06:46:57;98230.66;;;3.61;58.64
5609;BME280;2826;51.354;9.588;2024-03-08T06:49:24;98236.47;;;3.76;58.68
5609;BME280;2826;51.354;9.588;2024-03-08T06:51:52;98242.38;;;3.84;58.23
5609;BME280;2826;51.354;9.588;2024-03-08T06:54:18;98231.19;;;3.90;58.18
5609;BME280;2826;51.354;9.588;2024-03-08T06:56:46;98237.09;;;3.97;58.20
5609;BME280;2826;51.354;9.588;2024-03-08T06:59:13;98236.09;;;4.09;57.80
5609;BME280;2826;51.354;9.588;2024-03-08T07:01:40;98236.94;;;4.09;57.66
5609;BME280;2826;51.354;9.588;2024-03-08T07:04:06;98229.97;;;4.21;57.38
5609;BME280;2826;51.354;9.588;2024-03-08T07:06:33;98234.16;;;4.26;57.22
5609;BME280;2826;51.354;9.588;2024-03-08T07:09:00;98234.94;;;4.33;56.73
5609;BME280;2826;51.354;9.588;2024-03-08T07:11:26;98234.81;;;4.42;56.75
5609;BME280;2826;51.354;9.588;2024-03-08T07:13:55;98238.16;;;4.48;56.51
5609;BME280;2826;51.354;9.588;2024-03-08T07:16:21;98244.03;;;4.56;56.26
5609;BME280;2826;51.354;9.588;2024-03-08T07:18:49;98238.13;;;4.51;56.30
5609;BME280;2826;51.354;9.588;2024-03-08T07:21:17;98244.78;;;4.66;55.99
5609;BME280;2826;51.354;9.588;2024-03-08T07:23:45;98242.91;;;4.76;55.53
5609;BME280;2826;51.354;9.588;2024-03-08T07:26:31;98247.88;;;4.85;55.27
5609;BME280;2826;51.354;9.588;2024-03-08T07:28:59;98243.63;;;4.86;55.28
5609;BME280;2826;51.354;9.588;2024-03-08T07:31:26;98237.44;;;4.96;55.10
5609;BME280;2826;51.354;9.588;2024-03-08T07:34:03;98246.16;;;4.87;54.98
5609;BME280;2826;51.354;9.588;2024-03-08T07:36:33;98237.50;;;4.94;55.17
5609;BME280;2826;51.354;9.588;2024-03-08T07:39:00;98242.50;;;5.04;54.79
5609;BME280;2826;51.354;9.588;2024-03-08T07:41:26;98236.66;;;4.92;54.86
5609;BME280;2826;51.354;9.588;2024-03-08T07:43:54;98237.34;;;5.04;55.28
5609;BME280;2826;51.354;9.588;2024-03-08T07:46:22;98228.66;;;5.09;54.63
5609;BME280;2826;51.354;9.588;2024-03-08T07:48:49;98231.09;;;5.19;54.50
5609;BME280;2826;51.354;9.588;2024-03-08T07:51:16;98231.75;;;5.32;54.42
5609;BME280;2826;51.354;9.588;2024-03-08T07:53:43;98230.94;;;5.28;54.67
5609;BME280;2826;51.354;9.588;2024-03-08T07:56:10;98234.19;;;5.38;54.21
5609;BME280;2826;51.354;9.588;2024-03-08T07:58:39;98231.56;;;5.41;54.03
5609;BME280;2826;51.354;9.588;2024-03-08T08:01:06;98231.53;;;5.44;54.23
5609;BME280;2826;51.354;9.588;2024-03-08T08:03:34;98228.78;;;5.54;54.04
5609;BME280;2826;51.354;9.588;2024-03-08T08:06:03;98226.03;;;5.63;53.77
5609;BME280;2826;51.354;9.588;2024-03-08T08:08:30;98225.91;;;5.69;53.55
5609;BME280;2826;51.354;9.588;2024-03-08T08:10:57;98224.06;;;5.78;53.11
5609;BME280;2826;51.354;9.588;2024-03-08T08:13:24;98230.06;;;5.78;53.07
5609;BME280;2826;51.354;9.588;2024-03-08T08:15:53;98184.97;;;5.58;53.18
5609;BME280;2826;51.354;9.588;2024-03-08T08:18:19;98218.47;;;6.01;52.87
5609;BME280;2826;51.354;9.588;2024-03-08T08:20:51;98218.09;;;6.20;52.78
5609;BME280;2826;51.354;9.588;2024-03-08T08:23:19;98210.19;;;6.29;52.80
5609;BME280;2826;51.354;9.588;2024-03-08T08:25:45;98204.00;;;6.38;51.96
5609;BME280;2826;51.354;9.588;2024-03-08T08:28:15;98209.66;;;6.54;52.19
5609;BME280;2826;51.354;9.588;2024-03-08T08:30:43;98200.13;;;6.58;51.65
5609;BME280;2826;51.354;9.588;2024-03-08T08:33:09;98204.19;;;6.66;51.84
5609;BME280;2826;51.354;9.588;2024-03-08T08:35:36;98205.41;;;6.89;51.36
5609;BME280;2826;51.354;9.588;2024-03-08T08:38:05;98208.72;;;6.95;50.79
5609;BME280;2826;51.354;9.588;2024-03-08T08:40:33;98194.91;;;6.97;50.90
5609;BME280;2826;51.354;9.588;2024-03-08T08:43:01;98197.22;;;7.08;50.86
5609;BME280;2826;51.354;9.588;2024-03-08T08:45:29;98194.91;;;7.30;50.42
5609;BME280;2826;51.354;9.588;2024-03-08T08:47:56;98191.94;;;7.46;50.19
5609;BME280;2826;51.354;9.588;2024-03-08T08:50:25;98183.13;;;7.53;49.98
5609;BME280;2826;51.354;9.588;2024-03-08T08:52:52;98178.88;;;7.52;50.02
5609;BME280;2826;51.354;9.588;2024-03-08T08:55:20;98184.56;;;7.65;49.81
5609;BME280;2826;51.354;9.588;2024-03-08T08:57:50;98183.41;;;7.76;49.48
5609;BME280;2826;51.354;9.588;2024-03-08T09:00:18;98171.00;;;7.89;49.45
5609;BME280;2826;51.354;9.588;2024-03-08T09:02:45;98162.50;;;7.85;49.62
5609;BME280;2826;51.354;9.588;2024-03-08T09:05:12;98163.72;;;8.03;49.39
5609;BME280;2826;51.354;9.588;2024-03-08T09:07:42;98162.84;;;8.03;48.70
5609;BME280;2826;51.354;9.588;2024-03-08T09:10:09;98154.59;;;8.20;48.60
5609;BME280;2826;51.354;9.588;2024-03-08T09:12:39;98149.63;;;8.14;47.93
5609;BME280;2826;51.354;9.588;2024-03-08T09:15:06;98147.53;;;8.25;48.46
5609;BME280;2826;51.354;9.588;2024-03-08T09:17:36;98148.97;;;8.35;48.30
5609;BME280;2826;51.354;9.588;2024-03-08T09:20:06;98141.84;;;8.44;48.27
5609;BME280;2826;51.354;9.588;2024-03-08T09:22:34;98149.97;;;8.60;48.23
5609;BME280;2826;51.354;9.588;2024-03-08T09:25:00;98138.63;;;8.64;48.10
5609;BME280;2826;51.354;9.588;2024-03-08T09:27:27;98131.41;;;8.74;47.48
5609;BME280;2826;51.354;9.588;2024-03-08T09:29:56;98132.88;;;8.83;47.78
5609;BME280;2826;51.354;9.588;2024-03-08T09:32:23;98125.69;;;8.91;47.99
5609;BME280;2826;51.354;9.588;2024-03-08T09:34:49;98115.69;;;9.07;47.35
5609;BME280;2826;51.354;9.588;2024-03-08T09:37:16;98109.84;;;9.26;47.33
5609;BME280;2826;51.354;9.588;2024-03-08T09:39:44;98103.50;;;9.35;46.81
5609;BME280;2826;51.354;9.588;2024-03-08T09:42:11;98100.47;;;9.47;46.45
5609;BME280;2826;51.354;9.588;2024-03-08T09:44:44;98089.63;;;9.12;46.19
5609;BME280;2826;51.354;9.588;2024-03-08T09:47:13;98095.09;;;9.28;45.84
5609;BME280;2826;51.354;9.588;2024-03-08T09:49:40;98091.63;;;9.29;46.03
5609;BME280;2826;51.354;9.588;2024-03-08T09:52:07;98084.72;;;9.04;46.62
5609;BME280;2826;51.354;9.588;2024-03-08T09:54:35;98077.06;;;9.01;46.78
5609;BME280;2826;51.354;9.588;2024-03-08T09:57:03;98068.88;;;9.13;46.93
5609;BME280;2826;51.354;9.588;2024-03-08T09:59:30;97959.34;;;8.67;46.40
5609;BME280;2826;51.354;9.588;2024-03-08T10:02:15;98064.28;;;9.46;46.42
5609;BME280;2826;51.354;9.588;2024-03-08T10:04:42;98056.41;;;9.49;45.65
5609;BME280;2826;51.354;9.588;2024-03-08T10:07:11;98061.97;;;9.62;45.70
5609;BME280;2826;51.354;9.588;2024-03-08T10:09:38;98060.50;;;9.78;45.43
5609;BME280;2826;51.354;9.588;2024-03-08T10:12:05;98057.53;;;9.88;45.36
5609;BME280;2826;51.354;9.588;2024-03-08T10:14:33;98054.59;;;9.97;44.32
5609;BME280;2826;51.354;9.588;2024-03-08T10:17:00;98051.72;;;10.05;45.14
5609;BME280;2826;51.354;9.588;2024-03-08T10:19:28;98039.53;;;10.07;44.50
5609;BME280;2826;51.354;9.588;2024-03-08T10:21:55;98043.28;;;10.22;44.18
5609;BME280;2826;51.354;9.588;2024-03-08T10:24:24;98040.56;;;10.25;43.77
5609;BME280;2826;51.354;9.588;2024-03-08T10:26:52;98031.94;;;10.25;44.17
5609;BME280;2826;51.354;9.588;2024-03-08T10:29:18;98028.91;;;10.36;44.31
5609;BME280;2826;51.354;9.588;2024-03-08T10:31:45;98029.94;;;10.54;44.23
5609;BME280;2826;51.354;9.588;2024-03-08T10:34:12;98032.00;;;10.66;44.18
5609;BME280;2826;51.354;9.588;2024-03-08T10:36:41;98011.19;;;10.68;44.07
5609;BME280;2826;51.354;9.588;2024-03-08T10:39:14;97999.06;;;10.68;43.31
5609;BME280;2826;51.354;9.588;2024-03-08T10:41:50;98022.59;;;10.84;43.57
5609;BME280;2826;51.354;9.588;2024-03-08T10:44:28;98023.94;;;10.93;43.57
5609;BME280;2826;51.354;9.588;2024-03-08T10:47:01;98019.88;;;10.67;43.44
5609;BME280;2826;51.354;9.588;2024-03-08T10:49:31;98024.03;;;10.71;43.61
5609;BME280;2826;51.354;9.588;2024-03-08T10:52:03;98029.28;;;10.90;43.42
5609;BME280;2826;51.354;9.588;2024-03-08T10:57:06;98022.78;;;10.80;43.08
5609;BME280;2826;51.354;9.588;2024-03-08T10:59:34;98018.31;;;10.63;43.45
5609;BME280;2826;51.354;9.588;2024-03-08T11:04:51;97909.84;;;9.46;42.97
5609;BME280;2826;51.354;9.588;2024-03-08T11:07:43;98017.25;;;10.03;43.99
5609;BME280;2826;51.354;9.588;2024-03-08T11:11:04;97949.88;;;9.37;44.20
5609;BME280;2826;51.354;9.588;2024-03-08T11:14:04;98023.03;;;9.65;44.52
5609;BME280;2826;51.354;9.588;2024-03-08T11:17:10;98011.50;;;9.50;45.55
5609;BME280;2826;51.354;9.588;2024-03-08T11:20:28;97970.03;;;9.05;45.28
5609;BME280;2826;51.354;9.588;2024-03-08T11:23:47;98002.91;;;9.25;45.79
5609;BME280;2826;51.354;9.588;2024-03-08T11:26:47;97823.78;;;8.26;46.03
5609;BME280;2826;51.354;9.588;2024-03-08T11:29:36;97982.69;;;9.59;46.28
5609;BME280;2826;51.354;9.588;2024-03-08T11:32:07;97986.28;;;10.00;45.84
5609;BME280;2826;51.354;9.588;2024-03-08T11:34:34;97967.22;;;10.23;45.02
5609;BME280;2826;51.354;9.588;2024-03-08T11:37:00;97965.19;;;10.52;44.99
5609;BME280;2826;51.354;9.588;2024-03-08T11:39:29;97968.47;;;10.56;44.46
5609;BME280;2826;51.354;9.588;2024-03-08T11:41:56;97964.91;;;10.79;44.09
5609;BME280;2826;51.354;9.588;2024-03-08T11:44:26;97958.84;;;10.79;43.59
5609;BME280;2826;51.354;9.588;2024-03-08T11:46:54;97964.22;;;10.95;43.97
5609;BME280;2826;51.354;9.588;2024-03-08T11:49:20;97964.22;;;11.14;43.22
5609;BME280;2826;51.354;9.588;2024-03-08T11:51:51;97957.06;;;11.39;43.33
5609;BME280;2826;51.354;9.588;2024-03-08T11:54:18;97948.91;;;11.27;42.54
5609;BME280;2826;51.354;9.588;2024-03-08T11:56:47;97944.28;;;11.34;43.52
5609;BME280;2826;51.354;9.588;2024-03-08T11:59:13;97947.50;;;11.58;42.27
5609;BME280;2826;51.354;9.588;2024-03-08T12:01:40;97944.28;;;11.53;42.29
5609;BME280;2826;51.354;9.588;2024-03-08T12:04:12;97936.91;;;11.63;42.38
5609;BME280;2826;51.354;9.588;2024-03-08T12:06:40;97931.50;;;11.68;42.01
5609;BME280;2826;51.354;9.588;2024-03-08T12:09:10;97930.94;;;11.79;42.06
5609;BME280;2826;51.354;9.588;2024-03-08T12:11:37;97922.59;;;12.09;42.17
5609;BME280;2826;51.354;9.588;2024-03-08T12:14:05;97910.00;;;12.19;42.33
5609;BME280;2826;51.354;9.588;2024-03-08T12:16:32;97902.66;;;12.27;41.41
5609;BME280;2826;51.354;9.588;2024-03-08T12:18:59;97911.13;;;12.31;41.25
5609;BME280;2826;51.354;9.588;2024-03-08T12:21:31;97910.06;;;12.17;41.83
5609;BME280;2826;51.354;9.588;2024-03-08T12:24:04;97911.28;;;12.27;41.31
5609;BME280;2826;51.354;9.588;2024-03-08T12:26:35;97903.16;;;12.51;41.23
5609;BME280;2826;51.354;9.588;2024-03-08T12:29:17;97903.97;;;12.52;40.88
5609;BME280;2826;51.354;9.588;2024-03-08T12:31:46;97895.59;;;12.63;41.35
5609;BME280;2826;51.354;9.588;2024-03-08T12:34:13;97893.97;;;12.78;40.93
5609;BME280;2826;51.354;9.588;2024-03-08T12:36:44;97859.00;;;12.50;40.98
5609;BME280;2826;51.354;9.588;2024-03-08T12:39:13;97892.66;;;13.03;40.66
5609;BME280;2826;51.354;9.588;2024-03-08T12:41:41;97887.44;;;13.19;40.87
5609;BME280;2826;51.354;9.588;2024-03-08T12:44:08;97889.63;;;13.11;40.13
5609;BME280;2826;51.354;9.588;2024-03-08T12:46:38;97877.78;;;13.21;40.33
5609;BME280;2826;51.354;9.588;2024-03-08T12:49:09;97828.59;;;13.00;40.32
5609;BME280;2826;51.354;9.588;2024-03-08T12:51:37;97876.94;;;13.37;39.83
5609;BME280;2826;51.354;9.588;2024-03-08T12:54:04;97877.34;;;13.45;39.90
5609;BME280;2826;51.354;9.588;2024-03-08T12:56:33;97878.38;;;13.58;39.36
5609;BME280;2826;51.354;9.588;2024-03-08T12:59:00;97850.03;;;13.36;39.55
5609;BME280;2826;51.354;9.588;2024-03-08T13:01:28;97864.97;;;13.65;39.08
5609;BME280;2826;51.354;9.588;2024-03-08T13:03:56;97854.25;;;13.85;39.08
5609;BME280;2826;51.354;9.588;2024-03-08T13:06:24;97860.13;;;13.89;38.57
5609;BME280;2826;51.354;9.588;2024-03-08T13:08:51;97859.00;;;13.93;38.58
5609;BME280;2826;51.354;9.588;2024-03-08T13:11:19;97844.47;;;13.89;38.92
5609;BME280;2826;51.354;9.588;2024-03-08T13:13:46;97843.84;;;14.00;39.09
5609;BME280;2826;51.354;9.588;2024-03-08T13:16:13;97838.25;;;14.06;38.55
5609;BME280;2826;51.354;9.588;2024-03-08T13:18:40;97820.69;;;14.10;38.86
5609;BME280;2826;51.354;9.588;2024-03-08T13:21:09;97842.41;;;14.40;38.16
5609;BME280;2826;51.354;9.588;2024-03-08T13:23:38;97833.63;;;14.26;37.93
5609;BME280;2826;51.354;9.588;2024-03-08T13:26:05;97836.72;;;14.47;38.26
5609;BME280;2826;51.354;9.588;2024-03-08T13:28:32;97824.59;;;14.46;38.00
5609;BME280;2826;51.354;9.588;2024-03-08T13:31:03;97832.44;;;14.32;37.58
5609;BME280;2826;51.354;9.588;2024-03-08T13:33:32;97819.41;;;14.32;37.29
5609;BME280;2826;51.354;9.588;2024-03-08T13:36:01;97821.25;;;14.44;37.38
5609;BME280;2826;51.354;9.588;2024-03-08T13:38:30;97823.00;;;14.58;38.13
5609;BME280;2826;51.354;9.588;2024-03-08T13:40:58;97817.91;;;14.42;37.60
5609;BME280;2826;51.354;9.588;2024-03-08T13:43:24;97811.19;;;14.38;37.78